Rhinelander Oneida County Airport
KRHI : now visible

Airfield :











YOU CAN JOIN US ON...

 
LOGIN :

Register | Disclaimer

   EN    FR    IT 

 









Legend :    VFR   Marginal VFR   IFR   Intensive IFR   Very Intensive IFR
Visi :
Ceiling :
>= 8 km
>= 3000ft
5 to 8 km
1000 to 3000 ft
1500m to 5 km
500 to 1000 ft
800 to 1500m
200 to 500 ft
< 800m
< 200 ft
Symbols :   Thunderstorms  Fog  Heavy snow  Heavy precipitations  Wind > 20 kt






- Airport Elevation : 1624 ft
- IATA code : RHI


KRHI - Rhinelander Oneida County

CURRENT METAR :
  • 061653Z AUTO VRB03KT 10SM SCT036 18/08 A3018 RMK AO2 SLP219 T01830078

EXPIRED METARs :
  • 061553Z AUTO VRB04KT 10SM FEW030 SCT037 17/08 A3017 RMK AO2 SLP214 T01720083
  • 061501Z AUTO VRB06KT 10SM SCT029 BKN034 17/08 A3016 RMK AO2 T01670083

TAF KRHI
Valid from the 06 at 15:00 until the 07 at 12:00 UTC


061446Z 0615/0712 01006KT P6SM BKN027
FM061700 02006KT P6SM SCT060
FM070000 09004KT P6SM BKN200
FM070700 11005KT P6SM BKN070
KZMP FIR / North America



MET'MAP, your aeronautical weather chart ! - Copyright ORBIFLY December 2007 - Disclaimer

ORBIFLY MET'MAP TEAM :

Programming & Development : Alexandra Zaïnal
Concept & original design : Baudouin d'Aumeries
Assistance for programming : Marc-Olivier Méhu
Technical & hardware support : Manuel Goepfert

Contact : metmap@orbifly.com




SOURCES & CREDITS :

   NOAA       Earth
Advisory